Time;durP1;ratioP1;P1;durP2;ratioP2;P2;SDS_P1;SDS_P2;PMS_P1;PMS_P2;Temp;Humidity;BMP_temperature;BMP_pressure;BME280_temperature;BME280_humidity;BME280_pressure;Samples;Min_cycle;Max_cycle;Signal;HPM_P1;HPM_P2
2023/07/13 00:01:14;;;;;;;;;;;;;;;;;;5091159;28;19938;-66
2023/07/13 00:03:40;;;;;;;;;;;;;;;;;;5069387;28;20429;-65
2023/07/13 00:06:06;;;;;;;;;;;;;;;;;;5050825;28;19930;-65
2023/07/13 00:08:32;;;;;;;;;;;;;;;;;;5067611;28;19915;-65
2023/07/13 00:10:58;;;;;;;;;;;;;;;;;;5053418;28;19962;-65
2023/07/13 00:13:26;;;;;;;;;;;;;;;;;;5071013;28;19953;-66
2023/07/13 00:15:54;;;;;;;;;;;;;;;;;;5053752;28;19977;-65
2023/07/13 00:18:19;;;;;;;;;;;;;;;;;;5049938;28;20615;-66
2023/07/13 00:20:44;;;;;;;;;;;;;;;;;;5084985;28;20687;-66
2023/07/13 00:23:10;;;;;;;;;;;;;;;;;;5069192;28;19965;-65
2023/07/13 00:25:35;;;;;;;;;;;;;;;;;;5071189;28;20610;-66
2023/07/13 00:28:03;;;;;;;;;;;;;;;;;;5066508;28;19927;-66
2023/07/13 00:30:29;;;;;;;;;;;;;;;;;;5091932;28;19915;-66
2023/07/13 00:32:54;;;;;;;;;;;;;;;;;;5089425;28;19988;-66
2023/07/13 00:35:19;;;;;;;;;;;;;;;;;;5053836;28;19915;-66
2023/07/13 00:37:44;;;;;;;;;;;;;;;;;;5051822;28;19919;-66
2023/07/13 00:40:12;;;;;;;;;;;;;;;;;;5070899;28;19970;-65
2023/07/13 00:42:41;;;;;;;;;;;;;;;;;;5069542;28;20366;-64
2023/07/13 00:45:06;;;;;;;;;;;;;;;;;;5052959;28;19923;-66
2023/07/13 00:47:34;;;;;;;;;;;;;;;;;;5070058;28;20083;-66
2023/07/13 00:50:00;;;;;;;;;;;;;;;;;;5087098;28;20619;-66
2023/07/13 00:52:25;;;;;;;;;;;;;;;;;;5057884;28;19931;-65
2023/07/13 00:54:53;;;;;;;;;;;;;;;;;;5040217;28;20060;-66
2023/07/13 00:57:21;;;;;;;;;;;;;;;;;;5038322;28;20263;-66
2023/07/13 00:59:46;;;;;;;;;;;;;;;;;;5059289;28;19920;-65
2023/07/13 01:02:12;;;;;;;;;;;;;;;;;;5066354;28;19933;-65
2023/07/13 01:04:40;;;;;;;;;;;;;;;;;;5055919;28;19976;-68
2023/07/13 01:07:05;;;;;;;;;;;;;;;;;;5045712;28;19920;-66
2023/07/13 01:09:30;;;;;;;;;;;;;;;;;;5042474;28;20089;-66
2023/07/13 01:11:55;;;;;;;;;;;;;;;;;;5040795;28;19926;-66
2023/07/13 01:14:21;;;;;;;;;;;;;;;;;;5078701;28;19916;-66
2023/07/13 01:16:47;;;;;;;;;;;;;;;;;;5048486;28;19943;-66
2023/07/13 01:19:17;;;;;;;;;;;;;;;;;;5046894;28;19919;-66
2023/07/13 01:21:45;;;;;;;;;;;;;;;;;;5037674;28;19962;-65
2023/07/13 01:24:11;;;;;;;;;;;;;;;;;;5044544;28;19916;-65
2023/07/13 01:26:36;;;;;;;;;;;;;;;;;;5060222;28;19916;-67
2023/07/13 01:29:04;;;;;;;;;;;;;;;;;;5058466;28;19920;-65
2023/07/13 01:31:32;;;;;;;;;;;;;;;;;;5057600;28;19920;-65
2023/07/13 01:33:57;;;;;;;;;;;;;;;;;;5290150;23;21054;-60
2023/07/13 01:36:23;;;;;;;;;;;;;;;;;;4994700;28;21432;-61
2023/07/13 01:38:50;;;;;;;;;;;;;;;;;;5008038;28;19968;-61
2023/07/13 01:41:15;;;;;;;;;;;;;;;;;;5002999;28;20522;-60
2023/07/13 01:43:43;;;;;;;;;;;;;;;;;;4996116;28;19970;-61
2023/07/13 01:46:09;;;;;;;;;;;;;;;;;;5008535;28;19944;-60
2023/07/13 01:48:34;;;;;;;;;;;;;;;;;;4994610;28;20280;-60
2023/07/13 01:51:02;;;;;;;;;;;;;;;;;;5013845;28;19948;-60
2023/07/13 01:53:27;;;;;;;;;;;;;;;;;;5025421;28;19920;-59
2023/07/13 01:55:53;;;;;;;;;;;;;;;;;;4995263;28;19932;-61
2023/07/13 01:58:21;;;;;;;;;;;;;;;;;;4995065;28;19951;-60
2023/07/13 02:00:46;;;;;;;;;;;;;;;;;;5008449;28;20298;-62
2023/07/13 02:03:14;;;;;;;;;;;;;;;;;;5025867;28;19921;-61
2023/07/13 02:05:39;;;;;;;;;;;;;;;;;;5010250;28;20038;-61
2023/07/13 02:08:04;;;;;;;;;;;;;;;;;;5026679;28;19954;-59
2023/07/13 02:10:30;;;;;;;;;;;;;;;;;;5025036;28;19916;-60
2023/07/13 02:12:57;;;;;;;;;;;;;;;;;;5010459;28;19920;-60
2023/07/13 02:15:26;;;;;;;;;;;;;;;;;;5024686;28;19928;-59
2023/07/13 02:17:53;;;;;;;;;;;;;;;;;;5024727;28;19921;-59
2023/07/13 02:20:19;;;;;;;;;;;;;;;;;;5008431;28;20058;-60
2023/07/13 02:22:46;;;;;;;;;;;;;;;;;;4990578;28;19928;-59
2023/07/13 02:25:15;;;;;;;;;;;;;;;;;;5007582;28;19971;-60
2023/07/13 02:27:40;;;;;;;;;;;;;;;;;;4991974;28;20039;-60
2023/07/13 02:30:05;;;;;;;;;;;;;;;;;;4993141;28;19978;-60
2023/07/13 02:32:33;;;;;;;;;;;;;;;;;;5009504;28;19963;-60
2023/07/13 02:34:59;;;;;;;;;;;;;;;;;;5018273;28;19989;-61
2023/07/13 02:37:24;;;;;;;;;;;;;;;;;;5015235;28;19921;-60
2023/07/13 02:39:49;;;;;;;;;;;;;;;;;;5046808;28;19982;-60
2023/07/13 02:42:17;;;;;;;;;;;;;;;;;;5028867;28;19947;-60
2023/07/13 02:44:42;;;;;;;;;;;;;;;;;;5012318;28;20486;-61
2023/07/13 02:47:08;;;;;;;;;;;;;;;;;;5027862;28;19922;-60
2023/07/13 02:49:33;;;;;;;;;;;;;;;;;;5027262;28;19925;-60
2023/07/13 02:52:02;;;;;;;;;;;;;;;;;;5027634;28;19943;-60
2023/07/13 02:54:27;;;;;;;;;;;;;;;;;;5029225;28;20276;-61
2023/07/13 02:56:55;;;;;;;;;;;;;;;;;;5014618;28;20295;-61
2023/07/13 02:59:21;;;;;;;;;;;;;;;;;;5030242;28;19921;-60
2023/07/13 03:01:48;;;;;;;;;;;;;;;;;;5014675;28;20387;-60
2023/07/13 03:04:19;;;;;;;;;;;;;;;;;;5012675;28;19924;-60
2023/07/13 03:06:44;;;;;;;;;;;;;;;;;;5011952;28;20459;-61
2023/07/13 03:09:12;;;;;;;;;;;;;;;;;;5028444;28;19922;-60
2023/07/13 03:11:38;;;;;;;;;;;;;;;;;;5010218;28;19916;-61
2023/07/13 03:14:08;;;;;;;;;;;;;;;;;;5013299;28;19991;-60
2023/07/13 03:16:34;;;;;;;;;;;;;;;;;;5024768;28;19967;-60
2023/07/13 03:18:59;;;;;;;;;;;;;;;;;;5045001;28;20015;-60
2023/07/13 03:21:24;;;;;;;;;;;;;;;;;;5024269;28;20423;-59
2023/07/13 03:23:52;;;;;;;;;;;;;;;;;;5014472;28;19920;-60
2023/07/13 03:26:18;;;;;;;;;;;;;;;;;;5027834;28;19920;-60
2023/07/13 03:28:43;;;;;;;;;;;;;;;;;;5027311;28;19928;-60
2023/07/13 03:31:08;;;;;;;;;;;;;;;;;;5026523;28;19920;-60
2023/07/13 03:33:33;;;;;;;;;;;;;;;;;;5023552;28;19974;-59
2023/07/13 03:35:59;;;;;;;;;;;;;;;;;;5024803;28;20034;-60
2023/07/13 03:38:27;;;;;;;;;;;;;;;;;;5043164;28;19927;-59
2023/07/13 03:40:52;;;;;;;;;;;;;;;;;;5023950;28;20278;-60
2023/07/13 03:43:17;;;;;;;;;;;;;;;;;;5025787;28;19921;-60
2023/07/13 03:45:43;;;;;;;;;;;;;;;;;;5025674;28;19928;-60
2023/07/13 03:48:08;;;;;;;;;;;;;;;;;;5010305;28;19920;-60
2023/07/13 03:50:36;;;;;;;;;;;;;;;;;;5012422;28;19927;-60
2023/07/13 03:53:07;;;;;;;;;;;;;;;;;;5011217;28;19932;-60
2023/07/13 03:55:32;;;;;;;;;;;;;;;;;;5041716;28;19952;-60
2023/07/13 03:57:58;;;;;;;;;;;;;;;;;;5044683;28;20019;-60
2023/07/13 04:00:23;;;;;;;;;;;;;;;;;;5035757;28;19999;-61
2023/07/13 04:02:49;;;;;;;;;;;;;;;;;;5045904;28;20008;-61
2023/07/13 04:05:14;;;;;;;;;;;;;;;;;;5011397;28;19931;-61
2023/07/13 04:07:40;;;;;;;;;;;;;;;;;;5012009;28;19937;-61
2023/07/13 04:10:08;;;;;;;;;;;;;;;;;;5042922;28;20368;-61
2023/07/13 04:12:33;;;;;;;;;;;;;;;;;;5025796;28;20007;-62
2023/07/13 04:14:59;;;;;;;;;;;;;;;;;;5026011;28;20300;-61
2023/07/13 04:20:41;;;;;;;;;;;;;;;;;;5042484;28;19927;-61
2023/07/13 04:23:06;;;;;;;;;;;;;;;;;;5043198;28;19920;-61
2023/07/13 04:25:32;;;;;;;;;;;;;;;;;;5028476;28;19920;-61
2023/07/13 04:28:00;;;;;;;;;;;;;;;;;;5009625;28;19924;-61
2023/07/13 04:30:25;;;;;;;;;;;;;;;;;;5042717;28;19942;-61
2023/07/13 04:32:54;;;;;;;;;;;;;;;;;;5043298;28;20083;-61
2023/07/13 04:35:22;;;;;;;;;;;;;;;;;;5023436;28;20307;-61
2023/07/13 04:37:50;;;;;;;;;;;;;;;;;;5009353;28;20425;-61
2023/07/13 04:40:18;;;;;;;;;;;;;;;;;;5024686;28;20438;-61
2023/07/13 04:42:43;;;;;;;;;;;;;;;;;;5032541;28;20467;-61
2023/07/13 04:45:10;;;;;;;;;;;;;;;;;;5013046;28;19925;-61
2023/07/13 04:47:38;;;;;;;;;;;;;;;;;;5028013;28;19946;-61
2023/07/13 04:50:06;;;;;;;;;;;;;;;;;;5033107;28;20002;-61
2023/07/13 04:52:32;;;;;;;;;;;;;;;;;;5029929;28;20040;-61
2023/07/13 04:54:58;;;;;;;;;;;;;;;;;;5022307;28;19917;-61
2023/07/13 04:57:23;;;;;;;;;;;;;;;;;;5043928;28;20497;-61
2023/07/13 04:59:51;;;;;;;;;;;;;;;;;;5027055;28;20007;-61
2023/07/13 05:02:19;;;;;;;;;;;;;;;;;;5046723;28;20396;-61
2023/07/13 05:04:47;;;;;;;;;;;;;;;;;;5025743;28;20365;-61
2023/07/13 05:07:12;;;;;;;;;;;;;;;;;;5028417;28;19924;-60
2023/07/13 05:09:37;;;;;;;;;;;;;;;;;;5025728;28;19916;-61
2023/07/13 05:12:02;;;;;;;;;;;;;;;;;;5044087;28;19920;-61
2023/07/13 05:14:28;;;;;;;;;;;;;;;;;;5044500;28;20767;-62
2023/07/13 05:16:57;;;;;;;;;;;;;;;;;;5029065;28;19930;-62
2023/07/13 05:19:22;;;;;;;;;;;;;;;;;;5016418;28;19921;-62
2023/07/13 05:21:50;;;;;;;;;;;;;;;;;;5029355;28;20339;-61
2023/07/13 05:24:15;;;;;;;;;;;;;;;;;;5006893;28;19928;-61
2023/07/13 05:26:41;;;;;;;;;;;;;;;;;;5010810;28;19956;-62
2023/07/13 05:29:06;;;;;;;;;;;;;;;;;;5027659;28;20282;-62
2023/07/13 05:31:31;;;;;;;;;;;;;;;;;;5046305;28;19920;-62
2023/07/13 05:33:56;;;;;;;;;;;;;;;;;;5010860;28;19928;-62
2023/07/13 05:36:22;;;;;;;;;;;;;;;;;;5048630;28;19931;-61
2023/07/13 05:38:47;;;;;;;;;;;;;;;;;;5051147;28;20272;-60
2023/07/13 05:41:12;;;;;;;;;;;;;;;;;;5046297;28;21766;-62
2023/07/13 05:43:37;;;;;;;;;;;;;;;;;;5033208;28;20386;-62
2023/07/13 05:46:06;;;;;;;;;;;;;;;;;;5028614;28;19916;-61
2023/07/13 05:48:31;;;;;;;;;;;;;;;;;;5047024;28;20361;-61
2023/07/13 05:50:56;;;;;;;;;;;;;;;;;;5017354;28;19981;-61
2023/07/13 05:53:21;;;;;;;;;;;;;;;;;;5016342;28;19927;-63
2023/07/13 05:55:52;;;;;;;;;;;;;;;;;;5031313;28;19955;-61
2023/07/13 05:58:20;;;;;;;;;;;;;;;;;;5047062;28;19956;-61
2023/07/13 06:00:48;;;;;;;;;;;;;;;;;;5046264;28;20213;-61
2023/07/13 06:03:13;;;;;;;;;;;;;;;;;;5031229;28;19970;-61
2023/07/13 06:05:43;;;;;;;;;;;;;;;;;;5048513;28;20426;-62
2023/07/13 06:08:09;;;;;;;;;;;;;;;;;;5032070;28;20033;-62
2023/07/13 06:10:34;;;;;;;;;;;;;;;;;;5016382;28;20868;-61
2023/07/13 06:12:59;;;;;;;;;;;;;;;;;;5048519;28;20264;-60
2023/07/13 06:15:27;;;;;;;;;;;;;;;;;;5030621;28;20448;-61
2023/07/13 06:17:52;;;;;;;;;;;;;;;;;;5016698;28;19917;-61
2023/07/13 06:20:18;;;;;;;;;;;;;;;;;;5031086;28;19928;-60
2023/07/13 06:22:43;;;;;;;;;;;;;;;;;;5045365;28;19917;-60
2023/07/13 06:25:08;;;;;;;;;;;;;;;;;;5031072;28;20194;-60
2023/07/13 06:27:36;;;;;;;;;;;;;;;;;;5034185;28;20055;-62
2023/07/13 06:30:02;;;;;;;;;;;;;;;;;;5033101;28;19917;-62
2023/07/13 06:32:28;;;;;;;;;;;;;;;;;;5047698;28;19947;-62
2023/07/13 06:34:56;;;;;;;;;;;;;;;;;;5046965;28;19932;-62
2023/07/13 06:37:21;;;;;;;;;;;;;;;;;;5013709;28;20015;-61
2023/07/13 06:39:47;;;;;;;;;;;;;;;;;;5012602;28;20331;-60
2023/07/13 06:42:12;;;;;;;;;;;;;;;;;;5026671;28;19995;-61
2023/07/13 06:44:40;;;;;;;;;;;;;;;;;;5019239;28;20197;-61
2023/07/13 06:47:05;;;;;;;;;;;;;;;;;;5012937;28;20011;-60
2023/07/13 06:49:33;;;;;;;;;;;;;;;;;;5011416;28;19916;-61
2023/07/13 06:51:58;;;;;;;;;;;;;;;;;;5012625;28;20155;-61
2023/07/13 06:54:26;;;;;;;;;;;;;;;;;;5005111;28;19920;-62
2023/07/13 06:56:54;;;;;;;;;;;;;;;;;;5043044;28;19927;-62
2023/07/13 06:59:21;;;;;;;;;;;;;;;;;;5025600;28;20070;-61
2023/07/13 07:01:50;;;;;;;;;;;;;;;;;;5012618;28;19930;-62
2023/07/13 07:04:17;;;;;;;;;;;;;;;;;;5041363;28;20171;-60
2023/07/13 07:06:45;;;;;;;;;;;;;;;;;;5045138;28;19917;-61
2023/07/13 07:09:10;;;;;;;;;;;;;;;;;;5022588;28;19947;-60
2023/07/13 07:11:39;;;;;;;;;;;;;;;;;;5019029;28;20374;-61
2023/07/13 07:14:04;;;;;;;;;;;;;;;;;;5025470;28;19994;-60
2023/07/13 07:16:34;;;;;;;;;;;;;;;;;;5019978;28;21563;-62
2023/07/13 07:19:05;;;;;;;;;;;;;;;;;;5037576;28;20454;-60
2023/07/13 07:21:31;;;;;;;;;;;;;;;;;;5033409;28;19917;-61
2023/07/13 07:23:56;;;;;;;;;;;;;;;;;;5030215;28;19932;-60
2023/07/13 07:26:21;;;;;;;;;;;;;;;;;;5026635;28;19921;-61
2023/07/13 07:28:46;;;;;;;;;;;;;;;;;;5025498;28;19920;-63
2023/07/13 07:31:12;;;;;;;;;;;;;;;;;;5045141;28;20287;-62
2023/07/13 07:33:37;;;;;;;;;;;;;;;;;;5011815;28;19917;-61
2023/07/13 07:36:03;;;;;;;;;;;;;;;;;;5043176;28;20352;-61
2023/07/13 07:38:28;;;;;;;;;;;;;;;;;;5025103;28;20332;-61
2023/07/13 07:40:56;;;;;;;;;;;;;;;;;;5021544;28;19986;-60
2023/07/13 07:43:21;;;;;;;;;;;;;;;;;;5024228;28;19921;-61
2023/07/13 07:45:47;;;;;;;;;;;;;;;;;;5043203;28;19973;-61
2023/07/13 07:48:12;;;;;;;;;;;;;;;;;;5042027;28;19921;-60
2023/07/13 07:50:38;;;;;;;;;;;;;;;;;;5025941;28;19943;-61
2023/07/13 07:53:07;;;;;;;;;;;;;;;;;;5014888;28;20454;-61
2023/07/13 07:55:32;;;;;;;;;;;;;;;;;;5027527;28;19932;-61
2023/07/13 07:57:57;;;;;;;;;;;;;;;;;;5024960;28;20410;-61
2023/07/13 08:00:23;;;;;;;;;;;;;;;;;;5020593;28;20559;-62
2023/07/13 08:02:48;;;;;;;;;;;;;;;;;;5010374;28;21759;-61
2023/07/13 08:05:14;;;;;;;;;;;;;;;;;;5018314;28;20101;-60
2023/07/13 08:07:41;;;;;;;;;;;;;;;;;;5008631;28;20639;-60
2023/07/13 08:10:07;;;;;;;;;;;;;;;;;;5025399;28;19950;-60
2023/07/13 08:12:32;;;;;;;;;;;;;;;;;;5009674;28;20303;-61
2023/07/13 08:15:00;;;;;;;;;;;;;;;;;;5045598;28;20290;-60
2023/07/13 08:17:25;;;;;;;;;;;;;;;;;;5029289;28;19920;-64
2023/07/13 08:19:51;;;;;;;;;;;;;;;;;;5028924;28;19921;-61
2023/07/13 08:22:19;;;;;;;;;;;;;;;;;;5028588;28;19956;-60
2023/07/13 08:24:45;;;;;;;;;;;;;;;;;;5027183;28;20366;-60
2023/07/13 08:27:11;;;;;;;;;;;;;;;;;;5046864;28;19921;-60
2023/07/13 08:29:36;;;;;;;;;;;;;;;;;;5028491;28;20571;-61
2023/07/13 08:32:04;;;;;;;;;;;;;;;;;;5028935;28;20435;-60
2023/07/13 08:34:32;;;;;;;;;;;;;;;;;;5046439;28;19987;-60
2023/07/13 08:37:00;;;;;;;;;;;;;;;;;;5014777;28;19920;-61
2023/07/13 08:39:27;;;;;;;;;;;;;;;;;;5046635;28;19920;-59
2023/07/13 08:41:55;;;;;;;;;;;;;;;;;;5048417;28;20439;-61
2023/07/13 08:44:21;;;;;;;;;;;;;;;;;;5028067;28;19965;-60
2023/07/13 08:46:46;;;;;;;;;;;;;;;;;;5030544;28;19920;-59
2023/07/13 08:49:11;;;;;;;;;;;;;;;;;;5015085;28;21001;-60
2023/07/13 08:51:36;;;;;;;;;;;;;;;;;;5013472;28;19917;-62
2023/07/13 08:54:02;;;;;;;;;;;;;;;;;;5044258;28;19986;-61
2023/07/13 08:56:27;;;;;;;;;;;;;;;;;;5047591;28;20283;-62
2023/07/13 08:58:55;;;;;;;;;;;;;;;;;;5009797;28;19916;-61
2023/07/13 09:01:25;;;;;;;;;;;;;;;;;;5047451;28;19971;-61
2023/07/13 09:03:50;;;;;;;;;;;;;;;;;;5047559;28;20497;-61
2023/07/13 09:06:18;;;;;;;;;;;;;;;;;;5020400;28;20503;-60
2023/07/13 09:08:46;;;;;;;;;;;;;;;;;;5030777;28;19917;-60
2023/07/13 09:11:17;;;;;;;;;;;;;;;;;;5016462;28;19917;-60
2023/07/13 09:13:42;;;;;;;;;;;;;;;;;;5048482;28;19916;-61
2023/07/13 09:16:09;;;;;;;;;;;;;;;;;;5026006;28;20029;-60
2023/07/13 09:18:34;;;;;;;;;;;;;;;;;;5029434;28;19936;-60
2023/07/13 09:21:02;;;;;;;;;;;;;;;;;;5021275;28;19938;-62
2023/07/13 09:23:29;;;;;;;;;;;;;;;;;;5029712;28;19916;-62
2023/07/13 09:25:56;;;;;;;;;;;;;;;;;;5046802;28;19916;-60
2023/07/13 09:28:22;;;;;;;;;;;;;;;;;;5012791;28;19931;-61
2023/07/13 09:30:47;;;;;;;;;;;;;;;;;;5026315;28;19956;-61
2023/07/13 09:33:15;;;;;;;;;;;;;;;;;;5044832;28;20019;-62
2023/07/13 09:35:43;;;;;;;;;;;;;;;;;;5046196;28;20012;-63
2023/07/13 09:38:08;;;;;;;;;;;;;;;;;;5032175;28;19935;-62
2023/07/13 09:40:34;;;;;;;;;;;;;;;;;;5031691;28;19977;-63
2023/07/13 09:43:04;;;;;;;;;;;;;;;;;;5016039;28;20509;-63
2023/07/13 09:45:29;;;;;;;;;;;;;;;;;;5029359;28;19924;-61
2023/07/13 09:47:57;;;;;;;;;;;;;;;;;;5046964;28;20359;-62
2023/07/13 09:50:22;;;;;;;;;;;;;;;;;;5032178;28;19920;-62
2023/07/13 09:52:48;;;;;;;;;;;;;;;;;;5017506;28;19916;-63
2023/07/13 09:55:16;;;;;;;;;;;;;;;;;;5013234;28;21129;-63
2023/07/13 09:57:44;;;;;;;;;;;;;;;;;;5030584;28;19963;-64
2023/07/13 10:00:11;;;;;;;;;;;;;;;;;;5002919;28;20008;-66
2023/07/13 10:02:36;;;;;;;;;;;;;;;;;;5030506;28;20393;-61
2023/07/13 10:05:04;;;;;;;;;;;;;;;;;;5044707;28;19952;-61
2023/07/13 10:07:29;;;;;;;;;;;;;;;;;;5045930;28;20455;-62
2023/07/13 10:09:54;;;;;;;;;;;;;;;;;;5031270;28;19928;-63
2023/07/13 10:12:24;;;;;;;;;;;;;;;;;;5031998;28;19955;-63
2023/07/13 10:14:49;;;;;;;;;;;;;;;;;;5019444;28;20437;-63
2023/07/13 10:17:14;;;;;;;;;;;;;;;;;;5047533;28;19920;-61
2023/07/13 10:19:40;;;;;;;;;;;;;;;;;;5045991;28;20292;-61
2023/07/13 10:22:05;;;;;;;;;;;;;;;;;;5033224;28;20388;-62
2023/07/13 10:24:31;;;;;;;;;;;;;;;;;;5004608;28;19931;-62
2023/07/13 10:26:57;;;;;;;;;;;;;;;;;;5040009;28;19916;-62
2023/07/13 10:29:22;;;;;;;;;;;;;;;;;;5032276;28;19973;-62
2023/07/13 10:31:50;;;;;;;;;;;;;;;;;;5047151;28;19920;-62
2023/07/13 10:34:16;;;;;;;;;;;;;;;;;;5027440;28;19998;-63
2023/07/13 10:36:42;;;;;;;;;;;;;;;;;;5045415;28;19974;-64
2023/07/13 10:39:10;;;;;;;;;;;;;;;;;;5011582;28;19959;-60
2023/07/13 10:41:35;;;;;;;;;;;;;;;;;;5014447;28;20050;-61
2023/07/13 10:44:00;;;;;;;;;;;;;;;;;;5028105;28;20382;-62
2023/07/13 10:46:29;;;;;;;;;;;;;;;;;;5025321;28;19951;-64
2023/07/13 10:48:54;;;;;;;;;;;;;;;;;;5027598;28;19916;-64
2023/07/13 10:51:21;;;;;;;;;;;;;;;;;;5012585;28;20034;-62
2023/07/13 10:53:49;;;;;;;;;;;;;;;;;;5046869;28;20323;-62
2023/07/13 10:56:16;;;;;;;;;;;;;;;;;;5021361;28;19920;-63
2023/07/13 10:58:41;;;;;;;;;;;;;;;;;;5027400;28;19931;-61
2023/07/13 11:01:06;;;;;;;;;;;;;;;;;;5043757;28;19917;-64
2023/07/13 11:03:37;;;;;;;;;;;;;;;;;;5012629;28;20019;-60
2023/07/13 11:06:02;;;;;;;;;;;;;;;;;;5027571;28;19939;-64
2023/07/13 11:08:30;;;;;;;;;;;;;;;;;;5025655;28;20323;-64
2023/07/13 11:10:56;;;;;;;;;;;;;;;;;;5030593;28;19931;-63
2023/07/13 11:13:24;;;;;;;;;;;;;;;;;;5012780;28;19924;-65
2023/07/13 11:15:49;;;;;;;;;;;;;;;;;;5013279;28;20035;-64
2023/07/13 11:18:18;;;;;;;;;;;;;;;;;;5026351;28;21706;-63
2023/07/13 11:20:43;;;;;;;;;;;;;;;;;;5013813;28;19928;-61
2023/07/13 11:23:09;;;;;;;;;;;;;;;;;;5012470;28;20557;-64
2023/07/13 11:25:34;;;;;;;;;;;;;;;;;;5043959;28;19927;-61
2023/07/13 11:28:02;;;;;;;;;;;;;;;;;;5041672;28;19978;-65
2023/07/13 11:30:27;;;;;;;;;;;;;;;;;;5013929;28;19963;-63
2023/07/13 11:32:55;;;;;;;;;;;;;;;;;;5044249;28;20228;-65
2023/07/13 11:35:20;;;;;;;;;;;;;;;;;;5013292;28;19925;-64
2023/07/13 11:37:45;;;;;;;;;;;;;;;;;;4980999;28;19943;-63
2023/07/13 11:40:13;;;;;;;;;;;;;;;;;;5001955;28;19917;-64
2023/07/13 11:42:38;;;;;;;;;;;;;;;;;;4989340;28;19921;-65
2023/07/13 11:45:06;;;;;;;;;;;;;;;;;;4997768;28;19947;-64
2023/07/13 11:47:31;;;;;;;;;;;;;;;;;;4990360;28;19921;-64
2023/07/13 11:49:57;;;;;;;;;;;;;;;;;;5005397;28;19975;-62
2023/07/13 11:52:23;;;;;;;;;;;;;;;;;;4998003;28;19917;-64
2023/07/13 11:54:55;;;;;;;;;;;;;;;;;;5017239;28;19924;-64
2023/07/13 11:57:20;;;;;;;;;;;;;;;;;;5018226;28;19921;-62
2023/07/13 11:59:48;;;;;;;;;;;;;;;;;;5001022;28;20304;-63
2023/07/13 12:02:16;;;;;;;;;;;;;;;;;;4999085;28;19973;-62
2023/07/13 12:04:41;;;;;;;;;;;;;;;;;;4995448;28;19983;-65
2023/07/13 12:07:10;;;;;;;;;;;;;;;;;;4998245;28;20370;-62
2023/07/13 12:09:36;;;;;;;;;;;;;;;;;;4982066;28;20015;-64
2023/07/13 12:12:05;;;;;;;;;;;;;;;;;;5017426;28;19952;-62
2023/07/13 12:14:33;;;;;;;;;;;;;;;;;;4981283;28;19924;-65
2023/07/13 12:16:58;;;;;;;;;;;;;;;;;;4998512;28;20035;-63
2023/07/13 12:19:23;;;;;;;;;;;;;;;;;;4986000;28;19989;-63
2023/07/13 12:21:49;;;;;;;;;;;;;;;;;;5014830;28;20114;-63
2023/07/13 12:24:14;;;;;;;;;;;;;;;;;;4991264;28;19968;-63
2023/07/13 12:26:42;;;;;;;;;;;;;;;;;;5005042;28;20412;-62
2023/07/13 12:29:09;;;;;;;;;;;;;;;;;;5000333;28;20016;-62
2023/07/13 12:31:35;;;;;;;;;;;;;;;;;;5015609;28;19971;-63
2023/07/13 12:34:03;;;;;;;;;;;;;;;;;;5000046;28;19935;-63
2023/07/13 12:36:30;;;;;;;;;;;;;;;;;;5026442;28;19925;-63
2023/07/13 12:38:56;;;;;;;;;;;;;;;;;;5012955;28;19962;-64
2023/07/13 12:41:24;;;;;;;;;;;;;;;;;;5015213;28;19920;-65
2023/07/13 12:43:50;;;;;;;;;;;;;;;;;;5016932;28;19955;-64
2023/07/13 12:46:15;;;;;;;;;;;;;;;;;;5009119;28;20044;-63
2023/07/13 12:48:41;;;;;;;;;;;;;;;;;;5042645;28;20084;-65
2023/07/13 12:51:14;;;;;;;;;;;;;;;;;;5028951;28;19921;-65
2023/07/13 12:53:42;;;;;;;;;;;;;;;;;;5024796;28;20012;-64
2023/07/13 12:56:10;;;;;;;;;;;;;;;;;;5024578;28;20284;-64
2023/07/13 12:58:35;;;;;;;;;;;;;;;;;;5036619;28;19974;-65
2023/07/13 13:01:04;;;;;;;;;;;;;;;;;;5029190;28;19920;-64
2023/07/13 13:03:30;;;;;;;;;;;;;;;;;;5047575;28;20375;-66
2023/07/13 13:05:58;;;;;;;;;;;;;;;;;;5009005;28;19924;-63
2023/07/13 13:08:24;;;;;;;;;;;;;;;;;;5030276;28;19917;-66
2023/07/13 13:10:51;;;;;;;;;;;;;;;;;;5026549;28;19927;-65
2023/07/13 13:13:17;;;;;;;;;;;;;;;;;;5010358;28;19920;-65
2023/07/13 13:15:42;;;;;;;;;;;;;;;;;;5027992;28;20579;-65
2023/07/13 13:18:07;;;;;;;;;;;;;;;;;;5047350;28;19943;-63
2023/07/13 13:20:35;;;;;;;;;;;;;;;;;;5046042;28;19920;-63
2023/07/13 13:23:04;;;;;;;;;;;;;;;;;;5029796;28;20004;-65
2023/07/13 13:25:29;;;;;;;;;;;;;;;;;;5010687;28;19916;-62
2023/07/13 13:27:57;;;;;;;;;;;;;;;;;;5036781;28;20256;-65
2023/07/13 13:30:24;;;;;;;;;;;;;;;;;;5028660;28;19916;-65
2023/07/13 13:32:50;;;;;;;;;;;;;;;;;;5046391;28;20572;-63
2023/07/13 13:35:17;;;;;;;;;;;;;;;;;;5045168;28;19962;-65
2023/07/13 13:37:43;;;;;;;;;;;;;;;;;;5029814;28;19936;-64
2023/07/13 13:40:11;;;;;;;;;;;;;;;;;;5027465;28;19956;-64
2023/07/13 13:42:37;;;;;;;;;;;;;;;;;;5030420;28;19928;-65
2023/07/13 13:45:02;;;;;;;;;;;;;;;;;;5031729;28;19920;-67
2023/07/13 13:47:28;;;;;;;;;;;;;;;;;;5026360;28;19916;-67
2023/07/13 13:49:55;;;;;;;;;;;;;;;;;;5009348;28;19921;-62
2023/07/13 13:52:23;;;;;;;;;;;;;;;;;;5008861;28;19916;-63
2023/07/13 13:54:48;;;;;;;;;;;;;;;;;;5029133;28;20377;-67
2023/07/13 13:57:16;;;;;;;;;;;;;;;;;;5044704;28;19927;-63
2023/07/13 13:59:44;;;;;;;;;;;;;;;;;;5026793;28;19920;-66
2023/07/13 14:02:12;;;;;;;;;;;;;;;;;;5045454;28;19920;-67
2023/07/13 14:04:40;;;;;;;;;;;;;;;;;;5045666;28;20446;-66
2023/07/13 14:07:06;;;;;;;;;;;;;;;;;;5046315;28;19920;-67
2023/07/13 14:09:31;;;;;;;;;;;;;;;;;;5011315;28;20390;-65
2023/07/13 14:12:01;;;;;;;;;;;;;;;;;;5041597;28;19924;-62
2023/07/13 14:14:27;;;;;;;;;;;;;;;;;;5040405;28;19925;-63
2023/07/13 14:16:54;;;;;;;;;;;;;;;;;;5046977;28;20418;-66
2023/07/13 14:19:22;;;;;;;;;;;;;;;;;;5028555;28;19920;-66
2023/07/13 14:21:52;;;;;;;;;;;;;;;;;;5015307;28;20584;-65
2023/07/13 14:24:21;;;;;;;;;;;;;;;;;;5013126;28;20331;-64
2023/07/13 14:26:49;;;;;;;;;;;;;;;;;;5015366;28;19942;-63
2023/07/13 14:29:15;;;;;;;;;;;;;;;;;;5026687;28;20407;-65
2023/07/13 14:31:43;;;;;;;;;;;;;;;;;;5025961;28;20326;-64
2023/07/13 14:34:11;;;;;;;;;;;;;;;;;;5012867;28;19935;-64
2023/07/13 14:36:36;;;;;;;;;;;;;;;;;;5013474;28;19920;-63
2023/07/13 14:39:04;;;;;;;;;;;;;;;;;;5020279;28;20001;-64
2023/07/13 14:41:32;;;;;;;;;;;;;;;;;;5046536;28;20011;-63
2023/07/13 14:44:00;;;;;;;;;;;;;;;;;;5032570;28;20441;-64
2023/07/13 14:46:31;;;;;;;;;;;;;;;;;;5015275;28;19943;-64
2023/07/13 14:48:56;;;;;;;;;;;;;;;;;;5040121;28;19920;-65
2023/07/13 14:51:22;;;;;;;;;;;;;;;;;;5045050;28;19921;-64
2023/07/13 14:53:47;;;;;;;;;;;;;;;;;;5029023;28;19920;-63
2023/07/13 14:56:12;;;;;;;;;;;;;;;;;;5029615;28;20299;-63
2023/07/13 14:58:41;;;;;;;;;;;;;;;;;;5022527;28;20413;-66
2023/07/13 15:01:09;;;;;;;;;;;;;;;;;;5028455;28;19928;-64
2023/07/13 15:03:37;;;;;;;;;;;;;;;;;;5027705;28;19997;-64
2023/07/13 15:06:05;;;;;;;;;;;;;;;;;;5015123;28;20395;-66
2023/07/13 15:08:30;;;;;;;;;;;;;;;;;;5014719;28;19928;-66
2023/07/13 15:11:00;;;;;;;;;;;;;;;;;;5029327;28;19943;-64
2023/07/13 15:13:25;;;;;;;;;;;;;;;;;;5045519;28;20334;-62
2023/07/13 15:15:52;;;;;;;;;;;;;;;;;;5033951;28;19967;-61
2023/07/13 15:18:21;;;;;;;;;;;;;;;;;;5028505;28;20407;-63
2023/07/13 15:20:46;;;;;;;;;;;;;;;;;;5029458;28;19916;-63
2023/07/13 15:23:11;;;;;;;;;;;;;;;;;;5031156;28;19928;-64
2023/07/13 15:25:37;;;;;;;;;;;;;;;;;;5027840;28;20453;-65
2023/07/13 15:28:02;;;;;;;;;;;;;;;;;;5015162;28;19938;-64
2023/07/13 15:30:27;;;;;;;;;;;;;;;;;;5014660;28;19920;-62
2023/07/13 15:32:53;;;;;;;;;;;;;;;;;;5016462;28;19980;-62
2023/07/13 15:35:22;;;;;;;;;;;;;;;;;;5043238;28;20074;-64
2023/07/13 15:37:47;;;;;;;;;;;;;;;;;;5024332;28;19932;-65
2023/07/13 15:40:13;;;;;;;;;;;;;;;;;;5043174;28;20318;-63
2023/07/13 15:42:39;;;;;;;;;;;;;;;;;;5017722;28;20420;-62
2023/07/13 15:45:04;;;;;;;;;;;;;;;;;;5026011;28;19920;-63
2023/07/13 15:47:29;;;;;;;;;;;;;;;;;;5008140;28;19956;-64
2023/07/13 15:49:54;;;;;;;;;;;;;;;;;;5026469;28;21566;-64
2023/07/13 15:52:22;;;;;;;;;;;;;;;;;;5010826;28;19977;-63
2023/07/13 15:54:48;;;;;;;;;;;;;;;;;;5012792;28;19931;-63
2023/07/13 15:57:16;;;;;;;;;;;;;;;;;;5007374;28;20191;-65
2023/07/13 15:59:44;;;;;;;;;;;;;;;;;;5022660;28;19920;-63
2023/07/13 16:02:10;;;;;;;;;;;;;;;;;;5029818;28;19924;-62
2023/07/13 16:04:35;;;;;;;;;;;;;;;;;;5009220;28;20051;-62
2023/07/13 16:07:00;;;;;;;;;;;;;;;;;;5042622;28;19917;-64
2023/07/13 16:09:29;;;;;;;;;;;;;;;;;;5022391;28;19955;-63
2023/07/13 16:11:57;;;;;;;;;;;;;;;;;;5019487;28;20384;-65
2023/07/13 16:14:25;;;;;;;;;;;;;;;;;;5045427;28;19924;-63
2023/07/13 16:16:50;;;;;;;;;;;;;;;;;;5024365;28;20459;-65
2023/07/13 16:19:17;;;;;;;;;;;;;;;;;;5020252;28;19939;-65
2023/07/13 16:21:43;;;;;;;;;;;;;;;;;;5024049;28;19964;-64
2023/07/13 16:24:08;;;;;;;;;;;;;;;;;;5023356;28;20013;-63
2023/07/13 16:26:40;;;;;;;;;;;;;;;;;;5008545;28;19917;-63
2023/07/13 16:29:10;;;;;;;;;;;;;;;;;;5028745;28;19935;-63
2023/07/13 16:31:36;;;;;;;;;;;;;;;;;;5043429;28;19921;-62
2023/07/13 16:34:01;;;;;;;;;;;;;;;;;;5041582;28;19982;-63
2023/07/13 16:36:29;;;;;;;;;;;;;;;;;;5046305;28;19959;-65
2023/07/13 16:38:57;;;;;;;;;;;;;;;;;;5028847;28;19920;-63
2023/07/13 16:41:23;;;;;;;;;;;;;;;;;;5015048;28;19924;-62
2023/07/13 16:43:48;;;;;;;;;;;;;;;;;;5047749;28;20489;-62